createdAt,value
2022-08-07T00:00:24.941Z,20.64
2022-08-07T00:02:53.575Z,20.65
2022-08-07T00:05:20.463Z,20.64
2022-08-07T00:07:47.449Z,20.64
2022-08-07T00:10:26.294Z,20.61
2022-08-07T00:13:00.485Z,20.59
2022-08-07T00:15:38.442Z,20.57
2022-08-07T00:18:18.695Z,20.56
2022-08-07T00:20:46.841Z,20.54
2022-08-07T00:23:14.276Z,20.52
2022-08-07T00:25:41.422Z,20.51
2022-08-07T00:28:10.779Z,20.49
2022-08-07T00:30:37.344Z,20.49
2022-08-07T00:33:03.910Z,20.46
2022-08-07T00:35:30.692Z,20.44
2022-08-07T00:37:57.849Z,20.42
2022-08-07T00:40:39.961Z,20.44
2022-08-07T00:43:10.761Z,20.42
2022-08-07T00:45:56.070Z,20.40
2022-08-07T00:48:25.052Z,20.38
2022-08-07T00:50:57.963Z,20.39
2022-08-07T00:53:24.584Z,20.39
2022-08-07T00:56:02.100Z,20.38
2022-08-07T00:58:31.825Z,20.35
2022-08-07T01:00:58.839Z,20.33
2022-08-07T01:03:55.675Z,20.32
2022-08-07T01:06:12.572Z,20.32
2022-08-07T01:08:43.058Z,20.32
2022-08-07T01:12:09.744Z,20.30
2022-08-07T01:14:07.039Z,20.31
2022-08-07T01:16:35.953Z,20.28
2022-08-07T01:19:03.616Z,20.25
2022-08-07T01:21:31.789Z,20.25
2022-08-07T01:24:03.852Z,20.24
2022-08-07T01:26:31.009Z,20.22
2022-08-07T01:28:57.771Z,20.23
2022-08-07T01:31:24.397Z,20.24
2022-08-07T01:33:55.553Z,20.20
2022-08-07T01:36:33.541Z,20.21
2022-08-07T01:39:09.644Z,20.16
2022-08-07T01:41:37.671Z,20.18
2022-08-07T01:44:05.350Z,20.16
2022-08-07T01:46:32.455Z,20.16
2022-08-07T01:48:59.828Z,20.13
2022-08-07T01:52:02.363Z,20.12
2022-08-07T01:54:32.658Z,20.13
2022-08-07T01:57:05.683Z,20.13
2022-08-07T01:59:43.802Z,20.12
2022-08-07T02:02:32.949Z,20.11
2022-08-07T02:05:08.725Z,20.11
2022-08-07T02:07:51.257Z,20.11
2022-08-07T02:10:24.657Z,20.09
2022-08-07T02:12:51.918Z,20.10
2022-08-07T02:15:22.008Z,20.10
2022-08-07T02:17:51.797Z,20.09
2022-08-07T02:20:23.742Z,20.06
2022-08-07T02:22:54.872Z,20.05
2022-08-07T02:26:10.564Z,20.03
2022-08-07T02:28:14.739Z,20.01
2022-08-07T02:30:52.649Z,20.01
2022-08-07T02:33:20.070Z,20.03
2022-08-07T02:36:28.807Z,19.99
2022-08-07T02:38:38.100Z,19.99
2022-08-07T02:41:07.940Z,19.97
2022-08-07T02:43:39.755Z,19.99
2022-08-07T02:46:08.446Z,19.98
2022-08-07T02:48:35.067Z,19.95
2022-08-07T02:51:06.879Z,19.96
2022-08-07T02:53:43.987Z,19.97
2022-08-07T02:56:21.779Z,19.93
2022-08-07T02:58:51.311Z,19.92
2022-08-07T03:01:36.068Z,19.92
2022-08-07T03:04:07.064Z,19.90
2022-08-07T03:06:36.406Z,19.89
2022-08-07T03:09:06.595Z,19.89
2022-08-07T03:11:38.910Z,19.87
2022-08-07T03:14:19.730Z,19.88
2022-08-07T03:16:49.171Z,19.87
2022-08-07T03:19:15.901Z,19.86
2022-08-07T03:21:50.312Z,19.87
2022-08-07T03:24:25.864Z,19.84
2022-08-07T03:26:59.618Z,19.83
2022-08-07T03:29:31.357Z,19.79
2022-08-07T03:32:01.427Z,19.79
2022-08-07T03:34:28.683Z,19.79
2022-08-07T03:36:57.438Z,19.78
2022-08-07T03:39:46.098Z,19.76
2022-08-07T03:42:15.111Z,19.76
2022-08-07T03:44:41.970Z,19.75
2022-08-07T03:47:13.029Z,19.76
2022-08-07T03:49:42.313Z,19.73
2022-08-07T03:52:22.576Z,19.74
2022-08-07T03:54:54.896Z,19.73
2022-08-07T03:58:32.402Z,19.71
2022-08-07T04:00:12.720Z,19.70
2022-08-07T04:02:41.479Z,19.69
2022-08-07T04:05:08.440Z,19.69
2022-08-07T04:07:42.821Z,19.67
2022-08-07T04:10:15.665Z,19.65
2022-08-07T04:12:48.606Z,19.64
2022-08-07T04:15:18.066Z,19.63
2022-08-07T04:18:58.353Z,19.61
2022-08-07T04:20:31.530Z,19.62
2022-08-07T04:23:06.640Z,19.59
2022-08-07T04:25:39.205Z,19.60
2022-08-07T04:28:08.614Z,19.57
2022-08-07T04:30:43.459Z,19.55
2022-08-07T04:33:13.883Z,19.53
2022-08-07T04:35:50.134Z,19.54
2022-08-07T04:38:18.563Z,19.54
2022-08-07T04:40:51.688Z,19.53
2022-08-07T04:44:09.582Z,19.50
2022-08-07T04:46:25.820Z,19.50
2022-08-07T04:49:02.700Z,19.50
2022-08-07T04:51:52.601Z,19.49
2022-08-07T04:54:30.288Z,19.47
2022-08-07T04:58:13.257Z,19.49
2022-08-07T05:00:12.874Z,19.47
2022-08-07T05:02:52.449Z,19.48
2022-08-07T05:05:54.074Z,19.46
2022-08-07T05:08:17.537Z,19.46
2022-08-07T05:11:12.080Z,19.47
2022-08-07T05:14:52.441Z,19.44
2022-08-07T05:16:44.103Z,19.42
2022-08-07T05:19:16.336Z,19.43
2022-08-07T05:22:00.713Z,19.44
2022-08-07T05:24:30.476Z,19.44
2022-08-07T05:27:18.425Z,19.43
2022-08-07T05:29:56.886Z,19.41
2022-08-07T05:32:25.632Z,19.41
2022-08-07T05:34:53.294Z,19.41
2022-08-07T05:37:25.312Z,19.40
2022-08-07T05:40:06.920Z,19.40
2022-08-07T05:42:39.455Z,19.41
2022-08-07T05:45:25.782Z,19.40
2022-08-07T05:48:01.689Z,19.41
2022-08-07T05:50:30.675Z,19.40
2022-08-07T05:52:57.486Z,19.42
2022-08-07T05:55:24.408Z,19.41
2022-08-07T05:58:12.285Z,19.41
2022-08-07T06:00:40.321Z,19.40
2022-08-07T06:03:09.570Z,19.40
2022-08-07T06:05:37.190Z,19.39
2022-08-07T06:08:29.165Z,19.41
2022-08-07T06:10:54.732Z,19.41
2022-08-07T06:14:10.856Z,19.41
2022-08-07T06:16:10.095Z,19.43
2022-08-07T06:18:43.104Z,19.43
2022-08-07T06:22:14.890Z,19.43
2022-08-07T06:24:45.414Z,19.44
2022-08-07T06:26:44.483Z,19.44
2022-08-07T06:29:11.049Z,19.46
2022-08-07T06:31:46.951Z,19.45
2022-08-07T06:34:19.844Z,19.46
2022-08-07T06:36:47.196Z,19.47
2022-08-07T06:40:13.002Z,19.48
2022-08-07T06:42:06.066Z,19.49
2022-08-07T06:44:36.507Z,19.49
2022-08-07T06:47:10.269Z,19.48
2022-08-07T06:49:51.689Z,19.51
2022-08-07T06:52:32.079Z,19.54
2022-08-07T06:55:33.521Z,19.55
2022-08-07T06:57:54.918Z,19.54
2022-08-07T07:00:23.727Z,19.56
2022-08-07T07:02:57.594Z,19.56
2022-08-07T07:06:02.600Z,19.58
2022-08-07T07:08:18.211Z,19.59
2022-08-07T07:10:56.991Z,19.59
2022-08-07T07:13:55.480Z,19.61
2022-08-07T07:16:19.564Z,19.61
2022-08-07T07:18:50.337Z,19.62
2022-08-07T07:21:26.936Z,19.64
2022-08-07T07:24:11.423Z,19.66
2022-08-07T07:26:40.791Z,19.66
2022-08-07T07:29:39.390Z,19.68
2022-08-07T07:32:09.355Z,19.70
2022-08-07T07:34:40.565Z,19.71
2022-08-07T07:37:21.864Z,19.73
2022-08-07T07:40:02.392Z,19.74
2022-08-07T07:42:33.070Z,19.76
2022-08-07T07:45:01.290Z,19.77
2022-08-07T07:47:28.995Z,19.77
2022-08-07T07:50:33.286Z,19.79
2022-08-07T07:52:47.173Z,19.82
2022-08-07T07:55:15.845Z,19.83
2022-08-07T07:57:51.560Z,19.84
2022-08-07T08:00:29.826Z,19.84
2022-08-07T08:03:05.605Z,19.87
2022-08-07T08:05:50.797Z,19.88
2022-08-07T08:08:35.015Z,19.90
2022-08-07T08:11:04.761Z,19.92
2022-08-07T08:13:36.607Z,19.93
2022-08-07T08:16:25.181Z,19.95
2022-08-07T08:18:54.578Z,19.95
2022-08-07T08:21:22.390Z,19.99
2022-08-07T08:24:36.637Z,19.99
2022-08-07T08:27:00.180Z,20.01
2022-08-07T08:29:31.563Z,20.03
2022-08-07T08:32:18.543Z,20.04
2022-08-07T08:34:48.684Z,20.06
2022-08-07T08:38:01.286Z,20.07
2022-08-07T08:40:16.186Z,20.10
2022-08-07T08:42:51.579Z,20.11
2022-08-07T08:45:22.531Z,20.13
2022-08-07T08:48:06.432Z,20.13
2022-08-07T08:50:40.786Z,20.14
2022-08-07T08:53:16.551Z,20.15
2022-08-07T08:55:54.559Z,20.18
2022-08-07T08:58:33.587Z,20.19
2022-08-07T09:01:15.163Z,20.20
2022-08-07T09:03:55.784Z,20.22
2022-08-07T09:06:35.601Z,20.23
2022-08-07T09:09:20.762Z,20.25
2022-08-07T09:12:30.532Z,20.26
2022-08-07T09:16:23.679Z,20.26
2022-08-07T09:18:11.510Z,20.29
2022-08-07T09:20:58.141Z,20.30
2022-08-07T09:24:32.925Z,20.32
2022-08-07T09:26:33.422Z,20.34
2022-08-07T09:29:24.467Z,20.34
2022-08-07T09:32:17.215Z,20.35
2022-08-07T09:34:54.567Z,20.38
2022-08-07T09:37:48.101Z,20.38
2022-08-07T09:40:28.463Z,20.40
2022-08-07T09:43:08.220Z,20.41
2022-08-07T09:47:25.881Z,20.43
2022-08-07T09:48:55.838Z,20.44
2022-08-07T09:52:16.586Z,20.46
2022-08-07T09:54:38.232Z,20.47
2022-08-07T09:57:23.558Z,20.48
2022-08-07T10:00:02.724Z,20.49
2022-08-07T10:02:55.128Z,20.53
2022-08-07T10:05:58.890Z,20.54
2022-08-07T10:08:44.269Z,20.55
2022-08-07T10:12:01.807Z,20.56
2022-08-07T10:14:23.152Z,20.58
2022-08-07T10:17:14.033Z,20.58
2022-08-07T10:20:00.242Z,20.61
2022-08-07T10:22:38.299Z,20.62
2022-08-07T10:25:21.009Z,20.63
2022-08-07T10:28:09.424Z,20.64
2022-08-07T10:30:51.686Z,20.66
2022-08-07T10:33:31.010Z,20.67
2022-08-07T10:36:36.330Z,20.68
2022-08-07T10:39:18.796Z,20.69
2022-08-07T10:42:01.702Z,20.70
2022-08-07T10:44:45.517Z,20.70
2022-08-07T10:47:26.879Z,20.72
2022-08-07T10:50:15.153Z,20.75
2022-08-07T10:52:55.145Z,20.76
2022-08-07T10:55:38.429Z,20.78
2022-08-07T10:58:17.617Z,20.78
2022-08-07T11:01:13.719Z,20.79
2022-08-07T11:03:54.893Z,20.79
2022-08-07T11:06:34.529Z,20.81
2022-08-07T11:09:11.042Z,20.81
2022-08-07T11:11:45.744Z,20.85
2022-08-07T11:14:57.260Z,20.86
2022-08-07T11:17:23.427Z,20.86
2022-08-07T11:20:11.017Z,20.87
2022-08-07T11:22:46.181Z,20.88
2022-08-07T11:25:20.658Z,20.90
2022-08-07T11:28:02.434Z,20.91
2022-08-07T11:30:41.897Z,20.92
2022-08-07T11:33:16.652Z,20.92
2022-08-07T11:35:59.660Z,20.93
2022-08-07T11:38:30.500Z,20.96
2022-08-07T11:41:07.795Z,20.97
2022-08-07T11:43:54.675Z,20.97
2022-08-07T11:46:38.596Z,20.97
2022-08-07T11:49:27.717Z,20.97
2022-08-07T11:52:29.311Z,21.02
2022-08-07T11:56:09.607Z,21.02
2022-08-07T11:58:13.166Z,21.02
2022-08-07T12:01:01.696Z,21.03
2022-08-07T12:03:48.319Z,21.04
2022-08-07T12:06:37.013Z,21.06
2022-08-07T12:09:16.597Z,21.06
2022-08-07T12:12:09.764Z,21.08
2022-08-07T12:14:55.743Z,21.09
2022-08-07T12:17:34.209Z,21.10
2022-08-07T12:20:14.046Z,21.12
2022-08-07T12:23:14.423Z,21.12
2022-08-07T12:26:06.040Z,21.14
2022-08-07T12:28:45.539Z,21.15
2022-08-07T12:31:26.971Z,21.16
2022-08-07T12:34:14.119Z,21.16
2022-08-07T12:36:42.726Z,21.21
2022-08-07T12:39:44.401Z,21.21
2022-08-07T12:42:07.237Z,21.21
2022-08-07T12:44:35.761Z,21.21
2022-08-07T12:47:12.866Z,21.21
2022-08-07T12:49:56.694Z,21.22
2022-08-07T12:52:47.171Z,21.24
2022-08-07T12:55:40.481Z,21.26
2022-08-07T12:58:09.752Z,21.25
2022-08-07T13:00:50.914Z,21.27
2022-08-07T13:04:02.086Z,21.28
2022-08-07T13:06:54.212Z,21.29
2022-08-07T13:10:28.718Z,21.30
2022-08-07T13:12:53.768Z,21.30
2022-08-07T13:15:29.665Z,21.34
2022-08-07T13:18:25.872Z,21.33
2022-08-07T13:21:00.814Z,21.31
2022-08-07T13:24:01.849Z,21.33
2022-08-07T13:26:29.804Z,21.33
2022-08-07T13:29:03.302Z,21.35
2022-08-07T13:31:54.941Z,21.36
2022-08-07T13:34:35.966Z,21.35
2022-08-07T13:37:10.526Z,21.36
2022-08-07T13:40:33.337Z,21.36
2022-08-07T13:42:39.719Z,21.37
2022-08-07T13:46:06.360Z,21.39
2022-08-07T13:48:06.585Z,21.40
2022-08-07T13:50:44.915Z,21.41
2022-08-07T13:53:35.984Z,21.42
2022-08-07T13:56:18.873Z,21.42
2022-08-07T13:58:56.465Z,21.42
2022-08-07T14:01:26.147Z,21.44
2022-08-07T14:04:07.487Z,21.44
2022-08-07T14:06:38.574Z,21.44
2022-08-07T14:09:08.726Z,21.46
2022-08-07T14:12:00.024Z,21.47
2022-08-07T14:14:30.484Z,21.50
2022-08-07T14:17:32.286Z,21.50
2022-08-07T14:20:42.587Z,21.51
2022-08-07T14:22:41.344Z,21.52
2022-08-07T14:25:15.282Z,21.52
2022-08-07T14:28:11.256Z,21.53
2022-08-07T14:30:33.682Z,21.55
2022-08-07T14:35:55.669Z,21.54
2022-08-07T14:38:31.056Z,21.56
2022-08-07T14:41:03.913Z,21.58
2022-08-07T14:43:58.617Z,21.59
2022-08-07T14:46:31.226Z,21.59
2022-08-07T14:49:00.110Z,21.60
2022-08-07T14:52:03.641Z,21.63
2022-08-07T14:54:42.131Z,21.63
2022-08-07T14:57:14.965Z,21.63
2022-08-07T15:00:05.262Z,21.65
2022-08-07T15:02:34.555Z,21.64
2022-08-07T15:05:03.286Z,21.66
2022-08-07T15:10:19.629Z,21.68
2022-08-07T15:15:39.893Z,21.71
2022-08-07T15:18:28.438Z,21.72
2022-08-07T15:21:08.021Z,21.73
2022-08-07T15:25:15.571Z,21.73
2022-08-07T15:26:36.533Z,21.74
2022-08-07T15:32:00.886Z,21.77
2022-08-07T15:34:34.784Z,21.78
2022-08-07T15:39:57.944Z,21.81
2022-08-07T15:45:56.804Z,21.83
2022-08-07T15:48:27.068Z,21.87
2022-08-07T15:51:10.076Z,21.87
2022-08-07T15:53:52.028Z,21.87
2022-08-07T15:56:24.090Z,21.88
2022-08-07T15:58:53.362Z,21.88
2022-08-07T16:01:38.844Z,21.87
2022-08-07T16:04:14.824Z,21.89
2022-08-07T16:06:48.064Z,21.91
2022-08-07T16:09:22.734Z,21.93
2022-08-07T16:12:03.257Z,21.96
2022-08-07T16:14:45.951Z,21.97
2022-08-07T16:18:02.701Z,22.00
2022-08-07T16:20:38.376Z,22.00
2022-08-07T16:23:52.987Z,21.99
2022-08-07T16:26:14.424Z,22.00
2022-08-07T16:30:06.767Z,22.02
2022-08-07T16:31:57.702Z,22.03
2022-08-07T16:34:38.174Z,22.04
2022-08-07T16:38:06.694Z,22.05
2022-08-07T16:40:33.719Z,22.05
2022-08-07T16:43:13.545Z,22.06
2022-08-07T16:46:40.659Z,22.07
2022-08-07T16:50:20.024Z,22.08
2022-08-07T16:52:50.926Z,22.09
2022-08-07T16:54:59.341Z,22.09
2022-08-07T16:58:00.903Z,22.10
2022-08-07T17:00:39.862Z,22.12
2022-08-07T17:03:17.739Z,22.14
2022-08-07T17:06:20.103Z,22.15
2022-08-07T17:12:04.303Z,22.18
2022-08-07T17:14:41.735Z,22.18
2022-08-07T17:17:22.346Z,22.20
2022-08-07T17:20:01.895Z,22.19
2022-08-07T17:22:37.770Z,22.22
2022-08-07T17:25:15.219Z,22.23
2022-08-07T17:27:58.245Z,22.24
2022-08-07T17:30:29.379Z,22.25
2022-08-07T17:34:09.397Z,22.25
2022-08-07T17:35:59.197Z,22.25
2022-08-07T17:38:35.029Z,22.26
2022-08-07T17:42:00.637Z,22.26
2022-08-07T17:44:02.670Z,22.28
2022-08-07T17:46:40.185Z,22.27
2022-08-07T17:49:13.939Z,22.27
2022-08-07T17:52:01.275Z,22.27
2022-08-07T17:54:53.278Z,22.28
2022-08-07T17:57:56.379Z,22.28
2022-08-07T18:00:33.136Z,22.28
2022-08-07T18:03:10.303Z,22.29
2022-08-07T18:06:01.471Z,22.30
2022-08-07T18:08:32.439Z,22.29
2022-08-07T18:12:17.774Z,22.28
2022-08-07T18:14:01.523Z,22.30
2022-08-07T18:16:36.052Z,22.28
2022-08-07T18:21:02.432Z,22.28
2022-08-07T18:22:27.349Z,22.30
2022-08-07T18:24:58.164Z,22.31
2022-08-07T18:27:39.150Z,22.31
2022-08-07T18:30:32.282Z,22.30
2022-08-07T18:33:26.243Z,22.30
2022-08-07T18:36:10.260Z,22.31
2022-08-07T18:38:57.834Z,22.30
2022-08-07T18:41:46.038Z,22.30
2022-08-07T18:44:28.778Z,22.30
2022-08-07T18:47:05.188Z,22.30
2022-08-07T18:50:30.761Z,22.30
2022-08-07T18:52:54.345Z,22.29
2022-08-07T18:55:42.501Z,22.29
2022-08-07T18:58:25.402Z,22.29
2022-08-07T19:01:03.284Z,22.29
2022-08-07T19:03:42.749Z,22.30
2022-08-07T19:06:16.191Z,22.29
2022-08-07T19:08:56.128Z,22.30
2022-08-07T19:11:37.866Z,22.28
2022-08-07T19:14:17.300Z,22.29
2022-08-07T19:17:06.466Z,22.26
2022-08-07T19:19:53.426Z,22.26
2022-08-07T19:22:30.729Z,22.24
2022-08-07T19:24:58.946Z,22.21
2022-08-07T19:28:57.547Z,22.18
2022-08-07T19:31:02.236Z,22.17
2022-08-07T19:33:15.527Z,22.16
2022-08-07T19:35:51.263Z,22.15
2022-08-07T19:38:20.405Z,22.14
2022-08-07T19:40:51.531Z,22.11
2022-08-07T19:43:21.639Z,22.09
2022-08-07T19:46:10.507Z,22.10
2022-08-07T19:48:43.064Z,22.08
2022-08-07T19:51:20.522Z,22.06
2022-08-07T19:54:34.861Z,22.04
2022-08-07T19:58:00.142Z,22.01
2022-08-07T19:59:42.132Z,22.02
2022-08-07T20:02:19.222Z,22.01
2022-08-07T20:04:50.103Z,21.99
2022-08-07T20:07:46.381Z,21.97
2022-08-07T20:10:36.757Z,21.95
2022-08-07T20:13:06.008Z,21.95
2022-08-07T20:15:37.210Z,21.92
2022-08-07T20:18:06.810Z,21.90
2022-08-07T20:20:45.421Z,21.90
2022-08-07T20:23:41.869Z,21.90
2022-08-07T20:26:04.618Z,21.88
2022-08-07T20:28:39.668Z,21.87
2022-08-07T20:31:20.885Z,21.85
2022-08-07T20:33:51.299Z,21.84
2022-08-07T20:36:26.936Z,21.84
2022-08-07T20:39:00.868Z,21.83
2022-08-07T20:41:48.482Z,21.82
2022-08-07T20:44:16.087Z,21.82
2022-08-07T20:46:45.692Z,21.78
2022-08-07T20:49:58.424Z,21.78
2022-08-07T20:52:01.561Z,21.77
2022-08-07T20:54:34.544Z,21.76
2022-08-07T20:57:06.010Z,21.75
2022-08-07T21:00:06.669Z,21.74
2022-08-07T21:02:27.881Z,21.72
2022-08-07T21:04:55.039Z,21.71
2022-08-07T21:07:26.946Z,21.69
2022-08-07T21:09:59.173Z,21.67
2022-08-07T21:12:31.042Z,21.67
2022-08-07T21:15:04.920Z,21.66
2022-08-07T21:18:20.782Z,21.64
2022-08-07T21:20:29.743Z,21.62
2022-08-07T21:22:58.932Z,21.60
2022-08-07T21:25:56.215Z,21.60
2022-08-07T21:28:48.175Z,21.57
2022-08-07T21:31:50.115Z,21.56
2022-08-07T21:34:26.789Z,21.54
2022-08-07T21:37:03.555Z,21.53
2022-08-07T21:39:46.707Z,21.50
2022-08-07T21:42:42.449Z,21.47
2022-08-07T21:46:09.386Z,21.47
2022-08-07T21:48:28.706Z,21.43
2022-08-07T21:51:07.755Z,21.41
2022-08-07T21:53:53.226Z,21.39
2022-08-07T21:56:39.622Z,21.37
2022-08-07T21:59:22.831Z,21.37
2022-08-07T22:02:10.849Z,21.35
2022-08-07T22:04:53.506Z,21.34
2022-08-07T22:07:31.736Z,21.33
2022-08-07T22:10:12.683Z,21.29
2022-08-07T22:12:45.719Z,21.30
2022-08-07T22:16:42.361Z,21.28
2022-08-07T22:18:10.699Z,21.24
2022-08-07T22:20:43.079Z,21.24
2022-08-07T22:23:18.380Z,21.21
2022-08-07T22:25:59.168Z,21.18
2022-08-07T22:28:33.296Z,21.18
2022-08-07T22:31:11.551Z,21.18
2022-08-07T22:34:04.858Z,21.18
2022-08-07T22:36:40.777Z,21.16
2022-08-07T22:39:23.447Z,21.16
2022-08-07T22:42:03.992Z,21.14
2022-08-07T22:44:58.771Z,21.12
2022-08-07T22:47:42.920Z,21.10
2022-08-07T22:50:29.112Z,21.11
2022-08-07T22:53:18.726Z,21.09
2022-08-07T22:56:08.709Z,21.10
2022-08-07T22:59:02.260Z,21.08
2022-08-07T23:01:51.103Z,21.08
2022-08-07T23:04:45.247Z,21.06
2022-08-07T23:07:41.497Z,21.05
2022-08-07T23:10:38.066Z,21.03
2022-08-07T23:13:29.568Z,21.03
2022-08-07T23:16:44.661Z,21.01
2022-08-07T23:19:14.658Z,21.00
2022-08-07T23:21:51.399Z,20.98
2022-08-07T23:24:33.103Z,20.97
2022-08-07T23:27:15.975Z,20.96
2022-08-07T23:30:37.395Z,20.95
2022-08-07T23:34:36.712Z,20.93
2022-08-07T23:36:02.213Z,20.93
2022-08-07T23:38:42.705Z,20.92
2022-08-07T23:41:24.347Z,20.90
2022-08-07T23:44:16.572Z,20.90
2022-08-07T23:47:03.862Z,20.89
2022-08-07T23:49:50.445Z,20.86
2022-08-07T23:53:08.846Z,20.84
2022-08-07T23:55:53.073Z,20.81
2022-08-07T23:58:18.564Z,20.80
